createdAt,value
2018-09-18T00:00:23.208Z,72.10
2018-09-18T00:02:51.696Z,71.80
2018-09-18T00:20:02.927Z,74.20
2018-09-18T00:22:30.364Z,76.70
2018-09-18T00:24:57.480Z,78.30
2018-09-18T00:27:24.678Z,78.50
2018-09-18T00:29:52.214Z,78.20
2018-09-18T00:32:19.202Z,79.00
2018-09-18T00:34:46.172Z,78.40
2018-09-18T00:37:13.497Z,78.50
2018-09-18T00:39:47.197Z,78.50
2018-09-18T00:42:14.265Z,78.50
2018-09-18T00:44:41.189Z,78.90
2018-09-18T00:47:08.203Z,78.70
2018-09-18T00:49:35.455Z,78.90
2018-09-18T00:52:02.443Z,79.00
2018-09-18T00:54:29.459Z,79.20
2018-09-18T00:56:56.842Z,78.60
2018-09-18T01:01:51.725Z,78.50
2018-09-18T01:04:18.973Z,79.50
2018-09-18T01:06:45.958Z,79.20
2018-09-18T01:09:12.976Z,79.30
2018-09-18T01:11:40.152Z,79.20
2018-09-18T01:14:07.144Z,79.50
2018-09-18T01:16:34.094Z,79.50
2018-09-18T01:19:01.438Z,79.60
2018-09-18T01:21:28.411Z,79.60
2018-09-18T01:23:55.404Z,79.60
2018-09-18T01:33:43.920Z,79.70
2018-09-18T01:36:10.944Z,81.30
2018-09-18T01:38:37.950Z,81.00
2018-09-18T01:41:05.514Z,81.40
2018-09-18T01:43:32.539Z,81.10
2018-09-18T01:45:59.612Z,81.40
2018-09-18T01:48:26.595Z,81.70
2018-09-18T01:50:53.614Z,81.80
2018-09-18T01:53:20.659Z,81.60
2018-09-18T01:55:47.930Z,81.70
2018-09-18T01:58:14.958Z,81.80
2018-09-18T02:00:41.969Z,82.60
2018-09-18T02:03:09.230Z,81.40
2018-09-18T02:05:36.255Z,81.40
2018-09-18T02:08:03.240Z,80.90
2018-09-18T02:10:30.658Z,81.00
2018-09-18T02:12:57.656Z,81.10
2018-09-18T02:15:24.647Z,81.00
2018-09-18T02:17:51.694Z,81.10
2018-09-18T02:20:18.675Z,81.40
2018-09-18T02:22:45.710Z,80.90
2018-09-18T02:25:12.979Z,80.70
2018-09-18T02:27:39.913Z,80.10
2018-09-18T02:30:06.835Z,80.00
2018-09-18T02:32:34.060Z,80.00
2018-09-18T02:35:01.026Z,80.10
2018-09-18T02:37:28.089Z,80.00
2018-09-18T02:39:55.412Z,81.20
2018-09-18T02:42:22.415Z,81.30
2018-09-18T02:44:49.700Z,81.60
2018-09-18T02:47:17.109Z,81.40
2018-09-18T02:49:44.059Z,81.80
2018-09-18T02:52:10.996Z,81.60
2018-09-18T02:54:38.016Z,81.60
2018-09-18T02:57:05.017Z,82.00
2018-09-18T02:59:31.965Z,82.50
2018-09-18T03:01:59.372Z,82.80
2018-09-18T03:04:26.346Z,83.40
2018-09-18T03:06:53.253Z,84.00
2018-09-18T03:09:20.587Z,83.90
2018-09-18T03:11:47.583Z,84.70
2018-09-18T03:14:14.603Z,84.70
2018-09-18T03:16:41.936Z,84.60
2018-09-18T03:19:08.913Z,84.60
2018-09-18T03:21:35.896Z,84.30
2018-09-18T03:24:02.865Z,84.70
2018-09-18T03:26:29.855Z,84.80
2018-09-18T03:28:56.839Z,84.40
2018-09-18T03:31:24.124Z,85.20
2018-09-18T03:33:51.106Z,84.40
2018-09-18T03:36:18.191Z,84.10
2018-09-18T03:38:45.475Z,84.40
2018-09-18T03:41:12.453Z,84.70
2018-09-18T03:43:39.426Z,84.90
2018-09-18T03:46:06.684Z,85.30
2018-09-18T03:48:33.670Z,85.30
2018-09-18T03:51:00.638Z,85.30
2018-09-18T03:53:27.918Z,85.70
2018-09-18T03:55:54.943Z,85.70
2018-09-18T03:58:21.957Z,86.00
2018-09-18T04:00:48.929Z,86.00
2018-09-18T04:05:42.975Z,86.30
2018-09-18T04:08:10.233Z,86.60
2018-09-18T04:10:37.234Z,86.60
2018-09-18T04:13:04.685Z,86.80
2018-09-18T04:15:32.041Z,86.80
2018-09-18T04:17:59.030Z,86.70
2018-09-18T04:20:26.013Z,86.80
2018-09-18T04:22:53.463Z,87.40
2018-09-18T04:25:20.488Z,86.30
2018-09-18T04:27:47.480Z,86.30
2018-09-18T04:30:14.567Z,86.40
2018-09-18T04:32:41.576Z,87.60
2018-09-18T04:35:08.521Z,87.30
2018-09-18T04:37:35.850Z,87.70
2018-09-18T04:40:02.886Z,86.80
2018-09-18T04:42:29.869Z,86.50
2018-09-18T04:44:57.229Z,87.20
2018-09-18T04:47:24.211Z,87.80
2018-09-18T04:49:51.229Z,87.50
2018-09-18T04:52:18.500Z,87.30
2018-09-18T04:54:45.575Z,86.80
2018-09-18T04:57:12.578Z,86.80
2018-09-18T04:59:39.606Z,86.80
2018-09-18T05:02:06.659Z,86.80
2018-09-18T05:04:33.811Z,87.60
2018-09-18T05:07:01.171Z,86.70
2018-09-18T05:09:28.245Z,87.90
2018-09-18T05:11:55.206Z,87.40
2018-09-18T05:14:22.590Z,87.30
2018-09-18T05:16:49.554Z,87.30
2018-09-18T05:19:16.506Z,87.30
2018-09-18T05:21:43.594Z,87.40
2018-09-18T05:24:10.667Z,86.90
2018-09-18T05:26:37.652Z,87.00
2018-09-18T05:29:05.007Z,87.10
2018-09-18T05:31:31.975Z,86.90
2018-09-18T05:33:59.035Z,86.20
2018-09-18T05:36:26.298Z,85.70
2018-09-18T05:38:53.379Z,85.50
2018-09-18T05:41:20.338Z,84.90
2018-09-18T05:43:47.701Z,84.50
2018-09-18T05:46:14.700Z,83.90
2018-09-18T05:48:41.711Z,83.40
2018-09-18T05:51:08.714Z,82.80
2018-09-18T05:53:35.718Z,82.10
2018-09-18T05:56:02.774Z,81.20
2018-09-18T05:58:30.125Z,80.00
2018-09-18T06:03:24.367Z,78.70
2018-09-18T06:05:51.334Z,76.40
2018-09-18T06:25:28.242Z,74.90
2018-09-18T06:27:55.250Z,68.80
2018-09-18T06:30:22.223Z,68.00
2018-09-18T06:32:49.237Z,69.30
2018-09-18T06:35:16.499Z,70.60
2018-09-18T06:37:43.514Z,70.10
2018-09-18T06:40:10.735Z,69.90
2018-09-18T06:42:38.108Z,69.50
2018-09-18T06:45:05.234Z,68.30
2018-09-18T06:52:26.407Z,66.50
2018-09-18T06:57:20.818Z,59.30
2018-09-18T07:36:35.261Z,58.70
2018-09-18T21:21:48.391Z,43.20
2018-09-18T21:51:16.171Z,49.30
2018-09-18T21:53:43.767Z,50.00
2018-09-18T21:56:10.858Z,49.80
2018-09-18T21:58:37.885Z,50.10
2018-09-18T22:01:06.230Z,50.30
2018-09-18T22:03:33.775Z,50.40
2018-09-18T22:06:01.260Z,50.50
2018-09-18T22:08:28.481Z,50.60
2018-09-18T22:10:55.588Z,50.90
2018-09-18T22:35:29.322Z,51.30
2018-09-18T22:37:56.879Z,52.90
2018-09-18T22:40:24.174Z,52.60
2018-09-18T22:42:51.423Z,52.60
2018-09-18T22:45:18.680Z,52.50
2018-09-18T22:47:45.741Z,52.60
2018-09-18T22:50:12.951Z,52.60
2018-09-18T22:52:40.566Z,52.70
2018-09-18T22:55:07.751Z,52.80
2018-09-18T22:57:34.868Z,53.00
2018-09-18T23:00:02.049Z,52.90
2018-09-18T23:02:29.074Z,53.00
2018-09-18T23:04:56.280Z,53.00
2018-09-18T23:07:23.721Z,52.90
2018-09-18T23:09:50.813Z,52.50
2018-09-18T23:12:18.151Z,52.30
2018-09-18T23:14:45.427Z,52.50
2018-09-18T23:17:12.762Z,52.40
2018-09-18T23:19:39.877Z,52.40
2018-09-18T23:22:06.920Z,52.50
2018-09-18T23:24:34.007Z,52.50
2018-09-18T23:27:01.342Z,52.50
2018-09-18T23:29:29.134Z,52.90
2018-09-18T23:31:56.257Z,53.20
2018-09-18T23:34:23.311Z,53.40
2018-09-18T23:36:50.701Z,53.40
2018-09-18T23:39:17.994Z,53.50
2018-09-18T23:41:45.605Z,53.70
2018-09-18T23:44:13.026Z,53.80
